Main page
METAR-TAF:

METAR-TAF

Airports :

Lisbon Airport

Lisbon, Portugal

latitude: 38-46N, longitude: 009-08W, elevation: 114 m

Current weather observation

The report was made 23 minutes ago, at 08:30 UTC
Wind 8 kt from the Northeast
Temperature 11°C
Humidity 66%
Pressure 1025 hPa
Visibility 10 km or more
no clouds below 1500 m and no cumulonimbus

METAR: LPPT 210830Z 05008KT CAVOK 11/05 Q1025

Time: 08:53 (08:53 UTC)

Forecast

The report was made 3 hours and 53 minutes ago, at 05:00 UTC
Forecast valid from 21 at 06 UTC to 22 at 12 UTC
Wind 8 kt from the Northeast
Visibility 10 km or more
no clouds below 1500 m and no cumulonimbus
Becoming
from 21 at 10 UTC to 21 at 12 UTC
Wind 3 kt from variable directions
Becoming
from 21 at 16 UTC to 21 at 19 UTC
Wind 10 kt from the North/Northwest
Becoming
from 22 at 00 UTC to 22 at 03 UTC
Wind 8 kt from the Northeast

TAF: LPPT 210500Z 2106/2212 05008KT CAVOK BECMG 2110/2112 VRB03KT BECMG 2116/2119 33010KT BECMG 2200/2203 05008KT

Weather observations and forecasts of more than 4000 airports (METAR and TAF reports).

The available stations are represented by yellow and red dots on the map.

Hover mouse over dot to see the name of the station.

Then click to see weather observations and forecasts.

To change the map : click on the green buttons with a black cross to zoom in, on the green button with a dash to zoom out, or on the green arrows for adjacent maps.


METAR-TAF: